sensor_id;sensor_type;location;lat;lon;timestamp;P1;durP1;ratioP1;P2;durP2;ratioP2
29242;SDS011;21110;48.036;15.780;2023-03-14T00:01:56;3.30;;;1.90;;
29242;SDS011;21110;48.036;15.780;2023-03-14T00:04:21;7.25;;;2.42;;
29242;SDS011;21110;48.036;15.780;2023-03-14T00:06:47;2.42;;;2.20;;
29242;SDS011;21110;48.036;15.780;2023-03-14T00:09:14;3.25;;;2.15;;
29242;SDS011;21110;48.036;15.780;2023-03-14T00:11:40;2.05;;;1.92;;
29242;SDS011;21110;48.036;15.780;2023-03-14T00:14:06;3.08;;;2.00;;
29242;SDS011;21110;48.036;15.780;2023-03-14T00:16:31;3.75;;;2.10;;
29242;SDS011;21110;48.036;15.780;2023-03-14T00:19:00;2.30;;;2.00;;
29242;SDS011;21110;48.036;15.780;2023-03-14T00:21:26;4.40;;;1.92;;
29242;SDS011;21110;48.036;15.780;2023-03-14T00:23:52;2.30;;;2.10;;
29242;SDS011;21110;48.036;15.780;2023-03-14T00:26:18;2.00;;;1.90;;
29242;SDS011;21110;48.036;15.780;2023-03-14T00:28:45;2.20;;;1.90;;
29242;SDS011;21110;48.036;15.780;2023-03-14T00:31:14;4.07;;;2.10;;
29242;SDS011;21110;48.036;15.780;2023-03-14T00:33:40;4.18;;;2.10;;
29242;SDS011;21110;48.036;15.780;2023-03-14T00:36:10;2.92;;;1.85;;
29242;SDS011;21110;48.036;15.780;2023-03-14T00:38:38;2.83;;;2.10;;
29242;SDS011;21110;48.036;15.780;2023-03-14T00:41:09;3.25;;;2.00;;
29242;SDS011;21110;48.036;15.780;2023-03-14T00:43:37;2.00;;;1.90;;
29242;SDS011;21110;48.036;15.780;2023-03-14T00:46:03;6.45;;;2.10;;
29242;SDS011;21110;48.036;15.780;2023-03-14T00:48:29;7.90;;;1.95;;
29242;SDS011;21110;48.036;15.780;2023-03-14T00:50:55;4.15;;;1.90;;
29242;SDS011;21110;48.036;15.780;2023-03-14T00:53:21;4.38;;;2.08;;
29242;SDS011;21110;48.036;15.780;2023-03-14T00:55:47;2.50;;;2.05;;
29242;SDS011;21110;48.036;15.780;2023-03-14T00:58:14;2.58;;;2.00;;
29242;SDS011;21110;48.036;15.780;2023-03-14T01:00:41;2.25;;;1.75;;
29242;SDS011;21110;48.036;15.780;2023-03-14T01:03:07;3.65;;;1.90;;
29242;SDS011;21110;48.036;15.780;2023-03-14T01:05:33;3.90;;;1.95;;
29242;SDS011;21110;48.036;15.780;2023-03-14T01:07:59;3.17;;;1.73;;
29242;SDS011;21110;48.036;15.780;2023-03-14T01:10:25;1.80;;;1.70;;
29242;SDS011;21110;48.036;15.780;2023-03-14T01:12:51;2.30;;;1.80;;
29242;SDS011;21110;48.036;15.780;2023-03-14T01:15:16;8.95;;;2.05;;
29242;SDS011;21110;48.036;15.780;2023-03-14T01:17:42;7.07;;;1.98;;
29242;SDS011;21110;48.036;15.780;2023-03-14T01:20:09;6.88;;;2.10;;
29242;SDS011;21110;48.036;15.780;2023-03-14T01:22:37;6.30;;;1.90;;
29242;SDS011;21110;48.036;15.780;2023-03-14T01:25:06;3.60;;;1.83;;
29242;SDS011;21110;48.036;15.780;2023-03-14T01:27:33;5.20;;;1.90;;
29242;SDS011;21110;48.036;15.780;2023-03-14T01:29:59;2.72;;;1.92;;
29242;SDS011;21110;48.036;15.780;2023-03-14T01:32:25;1.85;;;1.70;;
29242;SDS011;21110;48.036;15.780;2023-03-14T01:34:51;1.80;;;1.70;;
29242;SDS011;21110;48.036;15.780;2023-03-14T01:37:17;1.90;;;1.80;;
29242;SDS011;21110;48.036;15.780;2023-03-14T01:39:42;2.53;;;1.90;;
29242;SDS011;21110;48.036;15.780;2023-03-14T01:42:08;3.00;;;2.10;;
29242;SDS011;21110;48.036;15.780;2023-03-14T01:44:56;2.22;;;1.80;;
29242;SDS011;21110;48.036;15.780;2023-03-14T01:47:23;4.78;;;1.95;;
29242;SDS011;21110;48.036;15.780;2023-03-14T01:49:57;3.65;;;1.70;;
29242;SDS011;21110;48.036;15.780;2023-03-14T01:52:28;4.88;;;1.90;;
29242;SDS011;21110;48.036;15.780;2023-03-14T01:55:21;2.83;;;1.90;;
29242;SDS011;21110;48.036;15.780;2023-03-14T01:58:04;1.80;;;1.70;;
29242;SDS011;21110;48.036;15.780;2023-03-14T02:00:30;2.45;;;1.75;;
29242;SDS011;21110;48.036;15.780;2023-03-14T02:02:57;2.55;;;1.75;;
29242;SDS011;21110;48.036;15.780;2023-03-14T02:05:27;3.50;;;1.80;;
29242;SDS011;21110;48.036;15.780;2023-03-14T02:07:58;3.50;;;1.70;;
29242;SDS011;21110;48.036;15.780;2023-03-14T02:10:26;1.83;;;1.60;;
29242;SDS011;21110;48.036;15.780;2023-03-14T02:12:55;4.88;;;1.85;;
29242;SDS011;21110;48.036;15.780;2023-03-14T02:15:24;2.78;;;1.80;;
29242;SDS011;21110;48.036;15.780;2023-03-14T02:17:49;2.85;;;1.73;;
29242;SDS011;21110;48.036;15.780;2023-03-14T02:23:20;2.03;;;1.80;;
29242;SDS011;21110;48.036;15.780;2023-03-14T02:26:17;1.92;;;1.80;;
29242;SDS011;21110;48.036;15.780;2023-03-14T02:28:47;3.97;;;1.73;;
29242;SDS011;21110;48.036;15.780;2023-03-14T02:31:13;5.10;;;1.77;;
29242;SDS011;21110;48.036;15.780;2023-03-14T02:33:40;2.17;;;1.80;;
29242;SDS011;21110;48.036;15.780;2023-03-14T02:36:07;4.43;;;1.70;;
29242;SDS011;21110;48.036;15.780;2023-03-14T02:38:37;3.63;;;1.80;;
29242;SDS011;21110;48.036;15.780;2023-03-14T02:41:25;4.00;;;1.80;;
29242;SDS011;21110;48.036;15.780;2023-03-14T02:43:51;3.60;;;1.70;;
29242;SDS011;21110;48.036;15.780;2023-03-14T02:46:17;1.60;;;1.50;;
29242;SDS011;21110;48.036;15.780;2023-03-14T02:48:49;3.42;;;1.77;;
29242;SDS011;21110;48.036;15.780;2023-03-14T02:51:19;6.80;;;1.77;;
29242;SDS011;21110;48.036;15.780;2023-03-14T02:53:46;2.97;;;1.70;;
29242;SDS011;21110;48.036;15.780;2023-03-14T02:56:12;3.92;;;1.60;;
29242;SDS011;21110;48.036;15.780;2023-03-14T02:58:38;4.90;;;1.70;;
29242;SDS011;21110;48.036;15.780;2023-03-14T03:01:04;2.00;;;1.60;;
29242;SDS011;21110;48.036;15.780;2023-03-14T03:03:30;3.13;;;1.60;;
29242;SDS011;21110;48.036;15.780;2023-03-14T03:05:56;2.85;;;1.60;;
29242;SDS011;21110;48.036;15.780;2023-03-14T03:08:22;5.53;;;1.60;;
29242;SDS011;21110;48.036;15.780;2023-03-14T03:10:51;5.15;;;1.63;;
29242;SDS011;21110;48.036;15.780;2023-03-14T03:13:16;4.32;;;1.88;;
29242;SDS011;21110;48.036;15.780;2023-03-14T03:15:43;4.13;;;1.70;;
29242;SDS011;21110;48.036;15.780;2023-03-14T03:18:09;5.53;;;1.80;;
29242;SDS011;21110;48.036;15.780;2023-03-14T03:20:35;2.78;;;1.67;;
29242;SDS011;21110;48.036;15.780;2023-03-14T03:23:01;7.07;;;1.48;;
29242;SDS011;21110;48.036;15.780;2023-03-14T03:25:27;5.40;;;1.60;;
29242;SDS011;21110;48.036;15.780;2023-03-14T03:27:53;1.75;;;1.45;;
29242;SDS011;21110;48.036;15.780;2023-03-14T03:30:19;5.32;;;1.70;;
29242;SDS011;21110;48.036;15.780;2023-03-14T03:32:45;3.85;;;1.45;;
29242;SDS011;21110;48.036;15.780;2023-03-14T03:35:11;2.15;;;1.50;;
29242;SDS011;21110;48.036;15.780;2023-03-14T03:37:37;2.47;;;1.45;;
29242;SDS011;21110;48.036;15.780;2023-03-14T03:40:03;2.80;;;1.50;;
29242;SDS011;21110;48.036;15.780;2023-03-14T03:42:31;4.43;;;1.65;;
29242;SDS011;21110;48.036;15.780;2023-03-14T03:44:57;1.70;;;1.60;;
29242;SDS011;21110;48.036;15.780;2023-03-14T03:47:24;1.60;;;1.50;;
29242;SDS011;21110;48.036;15.780;2023-03-14T03:49:49;1.95;;;1.50;;
29242;SDS011;21110;48.036;15.780;2023-03-14T03:52:15;3.90;;;1.70;;
29242;SDS011;21110;48.036;15.780;2023-03-14T03:54:41;3.85;;;1.60;;
29242;SDS011;21110;48.036;15.780;2023-03-14T03:57:06;4.75;;;1.50;;
29242;SDS011;21110;48.036;15.780;2023-03-14T03:59:32;3.28;;;1.60;;
29242;SDS011;21110;48.036;15.780;2023-03-14T04:01:57;2.30;;;1.70;;
29242;SDS011;21110;48.036;15.780;2023-03-14T04:04:23;4.15;;;1.50;;
29242;SDS011;21110;48.036;15.780;2023-03-14T04:06:49;1.60;;;1.50;;
29242;SDS011;21110;48.036;15.780;2023-03-14T04:09:14;1.65;;;1.55;;
29242;SDS011;21110;48.036;15.780;2023-03-14T04:11:40;1.63;;;1.50;;
29242;SDS011;21110;48.036;15.780;2023-03-14T04:14:06;3.72;;;1.70;;
29242;SDS011;21110;48.036;15.780;2023-03-14T04:16:32;2.20;;;1.70;;
29242;SDS011;21110;48.036;15.780;2023-03-14T04:18:57;1.90;;;1.80;;
29242;SDS011;21110;48.036;15.780;2023-03-14T04:21:23;4.43;;;1.77;;
29242;SDS011;21110;48.036;15.780;2023-03-14T04:23:49;1.60;;;1.50;;
29242;SDS011;21110;48.036;15.780;2023-03-14T04:26:15;2.88;;;1.70;;
29242;SDS011;21110;48.036;15.780;2023-03-14T04:28:41;1.70;;;1.60;;
29242;SDS011;21110;48.036;15.780;2023-03-14T04:31:07;1.85;;;1.70;;
29242;SDS011;21110;48.036;15.780;2023-03-14T04:33:34;2.40;;;1.60;;
29242;SDS011;21110;48.036;15.780;2023-03-14T04:36:01;1.73;;;1.63;;
29242;SDS011;21110;48.036;15.780;2023-03-14T04:38:26;1.98;;;1.70;;
29242;SDS011;21110;48.036;15.780;2023-03-14T04:40:52;1.80;;;1.70;;
29242;SDS011;21110;48.036;15.780;2023-03-14T04:43:18;2.20;;;1.70;;
29242;SDS011;21110;48.036;15.780;2023-03-14T04:45:43;7.20;;;1.83;;
29242;SDS011;21110;48.036;15.780;2023-03-14T04:48:09;6.90;;;1.60;;
29242;SDS011;21110;48.036;15.780;2023-03-14T04:50:35;2.22;;;1.70;;
29242;SDS011;21110;48.036;15.780;2023-03-14T04:53:01;1.80;;;1.70;;
29242;SDS011;21110;48.036;15.780;2023-03-14T04:55:26;2.88;;;1.80;;
29242;SDS011;21110;48.036;15.780;2023-03-14T04:57:52;2.95;;;1.80;;
29242;SDS011;21110;48.036;15.780;2023-03-14T05:00:17;6.78;;;1.70;;
29242;SDS011;21110;48.036;15.780;2023-03-14T05:02:43;3.03;;;1.77;;
29242;SDS011;21110;48.036;15.780;2023-03-14T05:05:09;5.25;;;1.90;;
29242;SDS011;21110;48.036;15.780;2023-03-14T05:07:35;13.55;;;2.10;;
29242;SDS011;21110;48.036;15.780;2023-03-14T05:10:01;6.13;;;2.70;;
29242;SDS011;21110;48.036;15.780;2023-03-14T05:12:27;13.00;;;2.60;;
29242;SDS011;21110;48.036;15.780;2023-03-14T05:14:53;11.52;;;3.00;;
29242;SDS011;21110;48.036;15.780;2023-03-14T05:17:19;8.57;;;3.75;;
29242;SDS011;21110;48.036;15.780;2023-03-14T05:19:45;11.60;;;3.50;;
29242;SDS011;21110;48.036;15.780;2023-03-14T05:22:10;8.82;;;3.30;;
29242;SDS011;21110;48.036;15.780;2023-03-14T05:24:37;34.22;;;4.22;;
29242;SDS011;21110;48.036;15.780;2023-03-14T05:27:03;35.50;;;3.92;;
29242;SDS011;21110;48.036;15.780;2023-03-14T05:29:29;22.60;;;3.80;;
29242;SDS011;21110;48.036;15.780;2023-03-14T05:31:55;17.90;;;3.40;;
29242;SDS011;21110;48.036;15.780;2023-03-14T05:34:20;14.57;;;3.60;;
29242;SDS011;21110;48.036;15.780;2023-03-14T05:36:46;14.40;;;3.38;;
29242;SDS011;21110;48.036;15.780;2023-03-14T05:39:12;12.30;;;3.50;;
29242;SDS011;21110;48.036;15.780;2023-03-14T05:41:37;13.20;;;3.28;;
29242;SDS011;21110;48.036;15.780;2023-03-14T05:44:03;11.25;;;3.10;;
29242;SDS011;21110;48.036;15.780;2023-03-14T05:46:28;7.38;;;3.05;;
29242;SDS011;21110;48.036;15.780;2023-03-14T05:48:56;9.50;;;3.20;;
29242;SDS011;21110;48.036;15.780;2023-03-14T05:51:22;7.05;;;3.03;;
29242;SDS011;21110;48.036;15.780;2023-03-14T05:53:48;8.30;;;2.90;;
29242;SDS011;21110;48.036;15.780;2023-03-14T05:56:14;6.93;;;3.13;;
29242;SDS011;21110;48.036;15.780;2023-03-14T05:58:40;8.57;;;3.03;;
29242;SDS011;21110;48.036;15.780;2023-03-14T06:01:06;9.25;;;3.00;;
29242;SDS011;21110;48.036;15.780;2023-03-14T06:03:32;9.02;;;3.22;;
29242;SDS011;21110;48.036;15.780;2023-03-14T06:05:58;5.43;;;2.83;;
29242;SDS011;21110;48.036;15.780;2023-03-14T06:08:24;4.05;;;2.80;;
29242;SDS011;21110;48.036;15.780;2023-03-14T06:10:50;5.10;;;2.83;;
29242;SDS011;21110;48.036;15.780;2023-03-14T06:13:16;5.78;;;3.10;;
29242;SDS011;21110;48.036;15.780;2023-03-14T06:15:42;9.98;;;2.60;;
29242;SDS011;21110;48.036;15.780;2023-03-14T06:18:08;6.22;;;2.78;;
29242;SDS011;21110;48.036;15.780;2023-03-14T06:20:37;4.68;;;2.45;;
29242;SDS011;21110;48.036;15.780;2023-03-14T06:23:07;6.53;;;2.92;;
29242;SDS011;21110;48.036;15.780;2023-03-14T06:25:33;3.85;;;2.70;;
29242;SDS011;21110;48.036;15.780;2023-03-14T06:27:59;5.10;;;2.47;;
29242;SDS011;21110;48.036;15.780;2023-03-14T06:30:25;3.78;;;2.65;;
29242;SDS011;21110;48.036;15.780;2023-03-14T06:32:51;4.68;;;2.70;;
29242;SDS011;21110;48.036;15.780;2023-03-14T06:35:17;4.60;;;2.70;;
29242;SDS011;21110;48.036;15.780;2023-03-14T06:37:45;4.32;;;2.90;;
29242;SDS011;21110;48.036;15.780;2023-03-14T06:40:11;4.28;;;2.50;;
29242;SDS011;21110;48.036;15.780;2023-03-14T06:42:41;3.00;;;2.70;;
29242;SDS011;21110;48.036;15.780;2023-03-14T06:45:08;3.58;;;2.60;;
29242;SDS011;21110;48.036;15.780;2023-03-14T06:47:34;4.55;;;2.60;;
29242;SDS011;21110;48.036;15.780;2023-03-14T06:49:59;3.97;;;2.30;;
29242;SDS011;21110;48.036;15.780;2023-03-14T06:52:25;3.50;;;2.70;;
29242;SDS011;21110;48.036;15.780;2023-03-14T06:54:51;2.80;;;2.60;;
29242;SDS011;21110;48.036;15.780;2023-03-14T06:57:16;2.75;;;2.40;;
29242;SDS011;21110;48.036;15.780;2023-03-14T06:59:42;2.85;;;2.40;;
29242;SDS011;21110;48.036;15.780;2023-03-14T07:02:10;3.13;;;2.63;;
29242;SDS011;21110;48.036;15.780;2023-03-14T07:04:37;3.03;;;2.72;;
29242;SDS011;21110;48.036;15.780;2023-03-14T07:07:02;3.88;;;2.90;;
29242;SDS011;21110;48.036;15.780;2023-03-14T07:09:28;4.15;;;2.70;;
29242;SDS011;21110;48.036;15.780;2023-03-14T07:11:53;4.45;;;2.70;;
29242;SDS011;21110;48.036;15.780;2023-03-14T07:14:19;3.38;;;2.70;;
29242;SDS011;21110;48.036;15.780;2023-03-14T07:16:45;2.63;;;2.42;;
29242;SDS011;21110;48.036;15.780;2023-03-14T07:19:10;4.30;;;2.50;;
29242;SDS011;21110;48.036;15.780;2023-03-14T07:21:36;2.80;;;2.50;;
29242;SDS011;21110;48.036;15.780;2023-03-14T07:24:02;2.35;;;2.25;;
29242;SDS011;21110;48.036;15.780;2023-03-14T07:26:27;2.50;;;2.30;;
29242;SDS011;21110;48.036;15.780;2023-03-14T07:28:53;2.22;;;2.13;;
29242;SDS011;21110;48.036;15.780;2023-03-14T07:31:18;2.42;;;2.30;;
29242;SDS011;21110;48.036;15.780;2023-03-14T07:33:47;3.53;;;2.45;;
29242;SDS011;21110;48.036;15.780;2023-03-14T07:36:13;2.53;;;2.33;;
29242;SDS011;21110;48.036;15.780;2023-03-14T07:38:39;3.03;;;2.40;;
29242;SDS011;21110;48.036;15.780;2023-03-14T07:41:05;2.40;;;2.20;;
29242;SDS011;21110;48.036;15.780;2023-03-14T07:43:31;2.40;;;2.30;;
29242;SDS011;21110;48.036;15.780;2023-03-14T07:45:57;3.15;;;2.40;;
29242;SDS011;21110;48.036;15.780;2023-03-14T07:48:23;2.33;;;2.22;;
29242;SDS011;21110;48.036;15.780;2023-03-14T07:50:51;3.42;;;2.30;;
29242;SDS011;21110;48.036;15.780;2023-03-14T07:53:18;2.60;;;2.40;;
29242;SDS011;21110;48.036;15.780;2023-03-14T07:55:44;4.75;;;2.20;;
29242;SDS011;21110;48.036;15.780;2023-03-14T07:58:11;2.38;;;2.17;;
29242;SDS011;21110;48.036;15.780;2023-03-14T08:00:36;2.33;;;2.08;;
29242;SDS011;21110;48.036;15.780;2023-03-14T08:03:02;2.40;;;2.20;;
29242;SDS011;21110;48.036;15.780;2023-03-14T08:05:28;2.30;;;2.20;;
29242;SDS011;21110;48.036;15.780;2023-03-14T08:07:54;2.20;;;2.00;;
29242;SDS011;21110;48.036;15.780;2023-03-14T08:10:19;2.40;;;2.20;;
29242;SDS011;21110;48.036;15.780;2023-03-14T08:12:49;2.30;;;2.20;;
29242;SDS011;21110;48.036;15.780;2023-03-14T08:15:15;2.10;;;2.00;;
29242;SDS011;21110;48.036;15.780;2023-03-14T08:17:41;2.28;;;2.17;;
29242;SDS011;21110;48.036;15.780;2023-03-14T08:20:06;2.40;;;2.20;;
29242;SDS011;21110;48.036;15.780;2023-03-14T08:22:34;2.00;;;1.90;;
29242;SDS011;21110;48.036;15.780;2023-03-14T08:25:00;2.15;;;1.95;;
29242;SDS011;21110;48.036;15.780;2023-03-14T08:27:25;2.33;;;2.13;;
29242;SDS011;21110;48.036;15.780;2023-03-14T08:29:51;2.00;;;1.90;;
29242;SDS011;21110;48.036;15.780;2023-03-14T08:32:17;1.92;;;1.83;;
29242;SDS011;21110;48.036;15.780;2023-03-14T08:34:44;2.10;;;1.90;;
29242;SDS011;21110;48.036;15.780;2023-03-14T08:37:10;2.08;;;1.90;;
29242;SDS011;21110;48.036;15.780;2023-03-14T08:39:36;2.17;;;1.98;;
29242;SDS011;21110;48.036;15.780;2023-03-14T08:42:01;2.13;;;1.90;;
29242;SDS011;21110;48.036;15.780;2023-03-14T08:44:28;2.00;;;1.90;;
29242;SDS011;21110;48.036;15.780;2023-03-14T08:46:53;2.03;;;1.80;;
29242;SDS011;21110;48.036;15.780;2023-03-14T08:49:20;2.00;;;1.90;;
29242;SDS011;21110;48.036;15.780;2023-03-14T08:51:45;1.90;;;1.80;;
29242;SDS011;21110;48.036;15.780;2023-03-14T08:54:11;1.90;;;1.80;;
29242;SDS011;21110;48.036;15.780;2023-03-14T08:56:37;2.00;;;1.90;;
29242;SDS011;21110;48.036;15.780;2023-03-14T08:59:03;2.08;;;1.98;;
29242;SDS011;21110;48.036;15.780;2023-03-14T09:01:29;1.77;;;1.67;;
29242;SDS011;21110;48.036;15.780;2023-03-14T09:03:55;1.88;;;1.77;;
29242;SDS011;21110;48.036;15.780;2023-03-14T09:06:20;1.92;;;1.83;;
29242;SDS011;21110;48.036;15.780;2023-03-14T09:08:46;1.80;;;1.70;;
29242;SDS011;21110;48.036;15.780;2023-03-14T09:11:12;2.10;;;2.00;;
29242;SDS011;21110;48.036;15.780;2023-03-14T09:13:38;1.98;;;1.88;;
29242;SDS011;21110;48.036;15.780;2023-03-14T09:16:04;1.80;;;1.70;;
29242;SDS011;21110;48.036;15.780;2023-03-14T09:18:30;1.90;;;1.80;;
29242;SDS011;21110;48.036;15.780;2023-03-14T09:20:56;1.98;;;1.88;;
29242;SDS011;21110;48.036;15.780;2023-03-14T09:23:22;1.80;;;1.70;;
29242;SDS011;21110;48.036;15.780;2023-03-14T09:25:47;1.85;;;1.75;;
29242;SDS011;21110;48.036;15.780;2023-03-14T09:28:13;2.00;;;1.90;;
29242;SDS011;21110;48.036;15.780;2023-03-14T09:30:39;2.00;;;1.80;;
29242;SDS011;21110;48.036;15.780;2023-03-14T09:33:04;1.83;;;1.73;;
29242;SDS011;21110;48.036;15.780;2023-03-14T09:35:30;1.90;;;1.80;;
29242;SDS011;21110;48.036;15.780;2023-03-14T09:37:55;1.70;;;1.60;;
29242;SDS011;21110;48.036;15.780;2023-03-14T09:40:21;1.70;;;1.60;;
29242;SDS011;21110;48.036;15.780;2023-03-14T09:42:51;1.77;;;1.67;;
29242;SDS011;21110;48.036;15.780;2023-03-14T09:45:23;1.80;;;1.70;;
29242;SDS011;21110;48.036;15.780;2023-03-14T09:47:52;1.80;;;1.70;;
29242;SDS011;21110;48.036;15.780;2023-03-14T09:50:19;1.80;;;1.70;;
29242;SDS011;21110;48.036;15.780;2023-03-14T09:52:46;1.60;;;1.50;;
29242;SDS011;21110;48.036;15.780;2023-03-14T09:55:16;1.75;;;1.65;;
29242;SDS011;21110;48.036;15.780;2023-03-14T09:57:44;1.75;;;1.67;;
29242;SDS011;21110;48.036;15.780;2023-03-14T10:02:42;1.60;;;1.50;;
29242;SDS011;21110;48.036;15.780;2023-03-14T10:05:16;1.63;;;1.52;;
29242;SDS011;21110;48.036;15.780;2023-03-14T10:07:43;1.60;;;1.50;;
29242;SDS011;21110;48.036;15.780;2023-03-14T10:12:43;1.80;;;1.70;;
29242;SDS011;21110;48.036;15.780;2023-03-14T10:15:27;1.90;;;1.80;;
29242;SDS011;21110;48.036;15.780;2023-03-14T10:17:59;1.95;;;1.80;;
29242;SDS011;21110;48.036;15.780;2023-03-14T10:20:28;1.70;;;1.60;;
29242;SDS011;21110;48.036;15.780;2023-03-14T10:23:22;1.67;;;1.60;;
29242;SDS011;21110;48.036;15.780;2023-03-14T10:28:51;1.60;;;1.60;;
29242;SDS011;21110;48.036;15.780;2023-03-14T10:31:18;1.80;;;1.70;;
29242;SDS011;21110;48.036;15.780;2023-03-14T10:34:03;1.70;;;1.60;;
29242;SDS011;21110;48.036;15.780;2023-03-14T10:36:30;1.77;;;1.67;;
29242;SDS011;21110;48.036;15.780;2023-03-14T10:38:58;1.50;;;1.50;;
29242;SDS011;21110;48.036;15.780;2023-03-14T10:41:49;1.60;;;1.55;;
29242;SDS011;21110;48.036;15.780;2023-03-14T10:44:18;1.60;;;1.50;;
29242;SDS011;21110;48.036;15.780;2023-03-14T10:46:54;1.58;;;1.50;;
29242;SDS011;21110;48.036;15.780;2023-03-14T10:49:27;1.70;;;1.60;;
29242;SDS011;21110;48.036;15.780;2023-03-14T10:52:00;1.40;;;1.40;;
29242;SDS011;21110;48.036;15.780;2023-03-14T10:54:37;2.20;;;1.60;;
29242;SDS011;21110;48.036;15.780;2023-03-14T10:57:03;1.42;;;1.40;;
29242;SDS011;21110;48.036;15.780;2023-03-14T10:59:37;1.60;;;1.50;;
29242;SDS011;21110;48.036;15.780;2023-03-14T11:05:07;1.70;;;1.60;;
29242;SDS011;21110;48.036;15.780;2023-03-14T11:07:43;1.67;;;1.58;;
29242;SDS011;21110;48.036;15.780;2023-03-14T11:13:17;1.30;;;1.30;;
29242;SDS011;21110;48.036;15.780;2023-03-14T11:21:08;1.50;;;1.50;;
29242;SDS011;21110;48.036;15.780;2023-03-14T11:29:18;1.50;;;1.40;;
29242;SDS011;21110;48.036;15.780;2023-03-14T11:31:47;1.60;;;1.50;;
29242;SDS011;21110;48.036;15.780;2023-03-14T11:39:27;1.48;;;1.45;;
29242;SDS011;21110;48.036;15.780;2023-03-14T11:42:02;1.30;;;1.30;;
29242;SDS011;21110;48.036;15.780;2023-03-14T11:44:30;1.60;;;1.50;;
29242;SDS011;21110;48.036;15.780;2023-03-14T11:50:07;1.40;;;1.40;;
29242;SDS011;21110;48.036;15.780;2023-03-14T11:52:50;1.55;;;1.55;;
29242;SDS011;21110;48.036;15.780;2023-03-14T11:55:36;1.50;;;1.50;;
29242;SDS011;21110;48.036;15.780;2023-03-14T12:00:35;1.67;;;1.52;;
29242;SDS011;21110;48.036;15.780;2023-03-14T12:11:16;1.50;;;1.40;;
29242;SDS011;21110;48.036;15.780;2023-03-14T12:13:47;1.40;;;1.40;;
29242;SDS011;21110;48.036;15.780;2023-03-14T12:18:49;1.40;;;1.40;;
29242;SDS011;21110;48.036;15.780;2023-03-14T12:21:16;1.55;;;1.52;;
29242;SDS011;21110;48.036;15.780;2023-03-14T12:23:44;1.40;;;1.40;;
29242;SDS011;21110;48.036;15.780;2023-03-14T12:26:17;1.20;;;1.20;;
29242;SDS011;21110;48.036;15.780;2023-03-14T12:36:57;1.30;;;1.30;;
29242;SDS011;21110;48.036;15.780;2023-03-14T12:42:22;1.30;;;1.30;;
29242;SDS011;21110;48.036;15.780;2023-03-14T12:50:37;1.35;;;1.35;;
29242;SDS011;21110;48.036;15.780;2023-03-14T12:59:14;1.50;;;1.50;;
29242;SDS011;21110;48.036;15.780;2023-03-14T13:02:11;1.42;;;1.40;;
29242;SDS011;21110;48.036;15.780;2023-03-14T13:10:52;1.50;;;1.50;;
29242;SDS011;21110;48.036;15.780;2023-03-14T13:13:24;1.35;;;1.35;;
29242;SDS011;21110;48.036;15.780;2023-03-14T13:15:55;1.67;;;1.58;;
29242;SDS011;21110;48.036;15.780;2023-03-14T13:18:36;1.40;;;1.40;;
29242;SDS011;21110;48.036;15.780;2023-03-14T13:26:25;1.30;;;1.30;;
29242;SDS011;21110;48.036;15.780;2023-03-14T13:28:58;1.40;;;1.40;;
29242;SDS011;21110;48.036;15.780;2023-03-14T13:31:24;1.30;;;1.30;;
29242;SDS011;21110;48.036;15.780;2023-03-14T13:34:01;1.40;;;1.40;;
29242;SDS011;21110;48.036;15.780;2023-03-14T13:36:30;1.60;;;1.60;;
29242;SDS011;21110;48.036;15.780;2023-03-14T13:38:56;1.48;;;1.48;;
29242;SDS011;21110;48.036;15.780;2023-03-14T13:41:24;1.40;;;1.40;;
29242;SDS011;21110;48.036;15.780;2023-03-14T13:43:51;1.40;;;1.40;;
29242;SDS011;21110;48.036;15.780;2023-03-14T13:46:22;1.30;;;1.30;;
29242;SDS011;21110;48.036;15.780;2023-03-14T13:48:52;1.30;;;1.30;;
29242;SDS011;21110;48.036;15.780;2023-03-14T13:51:27;1.20;;;1.20;;
29242;SDS011;21110;48.036;15.780;2023-03-14T13:53:56;1.30;;;1.30;;
29242;SDS011;21110;48.036;15.780;2023-03-14T13:56:24;1.30;;;1.30;;
29242;SDS011;21110;48.036;15.780;2023-03-14T13:58:52;1.30;;;1.30;;
29242;SDS011;21110;48.036;15.780;2023-03-14T14:01:19;1.40;;;1.40;;
29242;SDS011;21110;48.036;15.780;2023-03-14T14:03:46;1.25;;;1.25;;
29242;SDS011;21110;48.036;15.780;2023-03-14T14:08:51;1.20;;;1.20;;
29242;SDS011;21110;48.036;15.780;2023-03-14T14:11:20;1.20;;;1.20;;
29242;SDS011;21110;48.036;15.780;2023-03-14T14:14:01;1.25;;;1.25;;
29242;SDS011;21110;48.036;15.780;2023-03-14T14:16:27;1.20;;;1.20;;
29242;SDS011;21110;48.036;15.780;2023-03-14T14:18:54;1.20;;;1.20;;
29242;SDS011;21110;48.036;15.780;2023-03-14T14:21:21;1.10;;;1.10;;
29242;SDS011;21110;48.036;15.780;2023-03-14T14:23:48;1.40;;;1.40;;
29242;SDS011;21110;48.036;15.780;2023-03-14T14:26:15;1.20;;;1.20;;
29242;SDS011;21110;48.036;15.780;2023-03-14T14:28:42;1.20;;;1.20;;
29242;SDS011;21110;48.036;15.780;2023-03-14T14:33:52;1.20;;;1.20;;
29242;SDS011;21110;48.036;15.780;2023-03-14T14:36:36;1.30;;;1.30;;
29242;SDS011;21110;48.036;15.780;2023-03-14T14:41:39;1.20;;;1.20;;
29242;SDS011;21110;48.036;15.780;2023-03-14T14:44:06;1.17;;;1.17;;
29242;SDS011;21110;48.036;15.780;2023-03-14T14:46:34;1.10;;;1.10;;
29242;SDS011;21110;48.036;15.780;2023-03-14T14:49:15;1.10;;;1.10;;
29242;SDS011;21110;48.036;15.780;2023-03-14T14:51:44;1.17;;;1.17;;
29242;SDS011;21110;48.036;15.780;2023-03-14T14:54:15;1.40;;;1.30;;
29242;SDS011;21110;48.036;15.780;2023-03-14T14:56:47;1.10;;;1.10;;
29242;SDS011;21110;48.036;15.780;2023-03-14T14:59:21;1.10;;;1.10;;
29242;SDS011;21110;48.036;15.780;2023-03-14T15:01:48;1.10;;;1.10;;
29242;SDS011;21110;48.036;15.780;2023-03-14T15:04:16;1.10;;;1.10;;
29242;SDS011;21110;48.036;15.780;2023-03-14T15:06:45;1.10;;;1.10;;
29242;SDS011;21110;48.036;15.780;2023-03-14T15:09:13;1.20;;;1.20;;
29242;SDS011;21110;48.036;15.780;2023-03-14T15:11:41;1.15;;;1.15;;
29242;SDS011;21110;48.036;15.780;2023-03-14T15:14:06;1.20;;;1.20;;
29242;SDS011;21110;48.036;15.780;2023-03-14T15:16:32;1.23;;;1.23;;
29242;SDS011;21110;48.036;15.780;2023-03-14T15:18:59;1.27;;;1.27;;
29242;SDS011;21110;48.036;15.780;2023-03-14T15:21:34;1.20;;;1.20;;
29242;SDS011;21110;48.036;15.780;2023-03-14T15:23:59;1.20;;;1.20;;
29242;SDS011;21110;48.036;15.780;2023-03-14T15:26:26;1.27;;;1.27;;
29242;SDS011;21110;48.036;15.780;2023-03-14T15:28:52;1.20;;;1.20;;
29242;SDS011;21110;48.036;15.780;2023-03-14T15:31:19;1.20;;;1.20;;
29242;SDS011;21110;48.036;15.780;2023-03-14T15:33:46;1.30;;;1.30;;
29242;SDS011;21110;48.036;15.780;2023-03-14T15:38:48;1.20;;;1.20;;
29242;SDS011;21110;48.036;15.780;2023-03-14T15:41:14;1.20;;;1.20;;
29242;SDS011;21110;48.036;15.780;2023-03-14T15:43:40;1.05;;;1.05;;
29242;SDS011;21110;48.036;15.780;2023-03-14T15:46:08;1.20;;;1.20;;
29242;SDS011;21110;48.036;15.780;2023-03-14T15:48:37;1.20;;;1.20;;
29242;SDS011;21110;48.036;15.780;2023-03-14T15:51:06;1.35;;;1.30;;
29242;SDS011;21110;48.036;15.780;2023-03-14T15:53:32;1.20;;;1.20;;
29242;SDS011;21110;48.036;15.780;2023-03-14T15:55:57;1.35;;;1.35;;
29242;SDS011;21110;48.036;15.780;2023-03-14T15:58:23;1.17;;;1.17;;
29242;SDS011;21110;48.036;15.780;2023-03-14T16:00:49;1.20;;;1.20;;
29242;SDS011;21110;48.036;15.780;2023-03-14T16:03:15;1.20;;;1.20;;
29242;SDS011;21110;48.036;15.780;2023-03-14T16:05:41;1.10;;;1.10;;
29242;SDS011;21110;48.036;15.780;2023-03-14T16:08:07;1.17;;;1.17;;
29242;SDS011;21110;48.036;15.780;2023-03-14T16:10:33;1.10;;;1.10;;
29242;SDS011;21110;48.036;15.780;2023-03-14T16:12:59;1.30;;;1.30;;